Time;durP1;ratioP1;P1;durP2;ratioP2;P2;SDS_P1;SDS_P2;PMS_P1;PMS_P2;Temp;Humidity;BMP_temperature;BMP_pressure;BME280_temperature;BME280_humidity;BME280_pressure;Samples;Min_cycle;Max_cycle;Signal;HPM_P1;HPM_P2
2021/03/20 00:01:48;;;;;;;22.25;6.93;;;2.90;99.90;;;;;;4986511;28;20055;-85
2021/03/20 00:04:17;;;;;;;13.48;5.68;;;;;;;;;;4981861;28;20055;-84
2021/03/20 00:06:48;;;;;;;15.27;5.75;;;;;;;;;;4969911;28;20057;-84
2021/03/20 00:09:17;;;;;;;14.73;6.30;;;;;;;;;;4974510;28;20053;-85
2021/03/20 00:11:46;;;;;;;11.63;6.90;;;;;;;;;;4981009;28;20065;-86
2021/03/20 00:14:17;;;;;;;25.88;9.95;;;2.80;99.90;;;;;;4969990;28;20058;-84
2021/03/20 00:16:46;;;;;;;15.43;5.93;;;2.70;99.90;;;;;;4960428;28;20050;-84
2021/03/20 00:19:14;;;;;;;14.90;6.57;;;;;;;;;;4988358;28;20057;-85
2021/03/20 00:21:42;;;;;;;16.90;6.25;;;;;;;;;;4954501;28;20147;-86
2021/03/20 00:24:10;;;;;;;21.13;6.13;;;;;;;;;;4981367;28;20050;-85
2021/03/20 00:26:38;;;;;;;13.25;6.60;;;;;;;;;;4967175;28;20065;-85
2021/03/20 00:29:07;;;;;;;12.48;6.90;;;;;;;;;;4941367;28;20066;-84
2021/03/20 00:31:35;;;;;;;14.05;6.40;;;;;;;;;;4953614;28;20061;-84
2021/03/20 00:34:04;;;;;;;17.40;6.40;;;;;;;;;;4967533;28;20357;-86
2021/03/20 00:36:33;;;;;;;19.75;6.55;;;;;;;;;;4940967;28;20042;-84
2021/03/20 00:39:08;;;;;;;13.77;6.57;;;;;;;;;;4970129;28;20061;-83
2021/03/20 00:41:37;;;;;;;15.23;6.18;;;;;;;;;;4973310;28;20049;-85
2021/03/20 00:44:05;;;;;;;12.13;6.32;;;;;;;;;;4959739;28;20058;-85
2021/03/20 00:46:34;;;;;;;18.77;7.55;;;;;;;;;;4988023;28;20061;-85
2021/03/20 00:49:03;;;;;;;19.52;5.88;;;;;;;;;;4976609;28;20043;-84
2021/03/20 00:51:30;;;;;;;14.75;6.38;;;;;;;;;;4992406;28;20051;-84
2021/03/20 00:53:59;;;;;;;22.85;8.13;;;;;;;;;;4957797;28;20066;-84
2021/03/20 00:56:26;;;;;;;14.00;7.97;;;;;;;;;;4963096;28;20464;-84
2021/03/20 00:58:54;;;;;;;17.85;7.47;;;;;;;;;;4976328;28;20058;-84
2021/03/20 01:01:22;;;;;;;17.80;6.78;;;;;;;;;;4998267;28;20054;-84
2021/03/20 01:03:51;;;;;;;11.95;6.35;;;2.40;99.90;;;;;;4957656;28;20702;-84
2021/03/20 01:06:22;;;;;;;13.23;6.60;;;4.60;99.90;;;;;;4978700;28;20051;-84
2021/03/20 01:08:55;;;;;;;15.32;6.70;;;2.40;99.90;;;;;;4972354;28;20050;-83
2021/03/20 01:11:25;;;;;;;15.40;8.65;;;2.30;99.90;;;;;;4952337;28;20438;-83
2021/03/20 01:13:53;;;;;;;18.45;7.15;;;;;;;;;;4964858;28;20046;-84
2021/03/20 01:16:21;;;;;;;22.02;8.35;;;;;;;;;;4984415;28;20050;-85
2021/03/20 01:18:49;;;;;;;17.08;6.32;;;;;;;;;;4984717;28;20038;-85
2021/03/20 01:21:17;;;;;;;18.17;7.88;;;;;;;;;;4985743;28;20059;-85
2021/03/20 01:23:45;;;;;;;15.68;7.10;;;;;;;;;;4993032;28;20069;-84
2021/03/20 01:26:13;;;;;;;19.65;8.20;;;;;;;;;;4977144;28;20051;-84
2021/03/20 01:28:41;;;;;;;20.60;8.35;;;2.30;99.90;;;;;;4958689;28;20054;-84
2021/03/20 01:31:12;;;;;;;12.68;6.13;;;2.20;99.90;;;;;;4970860;28;20074;-84
2021/03/20 01:33:42;;;;;;;16.67;6.53;;;;;;;;;;4953208;28;20058;-84
2021/03/20 01:36:10;;;;;;;17.80;7.40;;;;;;;;;;4965365;28;20065;-84
2021/03/20 01:38:38;;;;;;;20.85;7.60;;;;;;;;;;4979234;28;20058;-85
2021/03/20 01:41:08;;;;;;;17.13;9.80;;;2.10;99.90;;;;;;4961755;28;20057;-84
2021/03/20 01:43:36;;;;;;;13.88;6.78;;;;;;;;;;4954865;28;20077;-85
2021/03/20 01:46:41;;;;;;;19.13;8.77;;;2.10;99.90;;;;;;4962916;28;20051;-85
2021/03/20 01:49:21;;;;;;;15.68;8.07;;;2.10;99.90;;;;;;4946244;28;20062;-84
2021/03/20 01:51:57;;;;;;;14.07;7.18;;;2.10;99.90;;;;;;4995770;28;20054;-84
2021/03/20 01:54:47;;;;;;;13.77;6.90;;;4.30;99.90;;;;;;4979609;28;20054;-84
2021/03/20 01:57:21;;;;;;;15.23;7.83;;;2.20;99.90;;;;;;4989785;28;20054;-83
2021/03/20 01:59:49;;;;;;;15.15;7.72;;;;;;;;;;4976296;28;20307;-84
2021/03/20 02:02:17;;;;;;;16.63;8.20;;;;;;;;;;4955484;28;20058;-84
2021/03/20 02:04:45;;;;;;;18.80;7.10;;;;;;;;;;4953112;28;20050;-85
2021/03/20 02:07:13;;;;;;;17.45;6.55;;;;;;;;;;4971550;28;20043;-84
2021/03/20 02:09:41;;;;;;;19.65;7.80;;;;;;;;;;4971277;28;20065;-83
2021/03/20 02:12:23;;;;;;;17.75;7.18;;;2.00;99.90;;;;;;4980566;28;20046;-85
2021/03/20 02:15:15;;;;;;;16.30;7.70;;;1.70;99.90;;;;;;4965271;28;20050;-84
2021/03/20 02:17:47;;;;;;;16.05;8.65;;;;;;;;;;4979613;28;20046;-84
2021/03/20 02:20:24;;;;;;;15.82;7.75;;;;;;;;;;4963934;28;20441;-83
2021/03/20 02:23:07;;;;;;;16.10;7.97;;;;;;;;;;4963631;28;20051;-83
2021/03/20 02:26:02;;;;;;;12.25;6.60;;;2.00;99.90;;;;;;4961267;28;20058;-85
2021/03/20 02:28:59;;;;;;;12.95;6.93;;;1.90;99.90;;;;;;4959082;28;20053;-84
2021/03/20 02:31:52;;;;;;;16.42;7.72;;;2.00;99.90;;;;;;4965403;28;20085;-84
2021/03/20 02:34:28;;;;;;;14.63;7.85;;;2.00;99.90;;;;;;4978728;28;20058;-83
2021/03/20 02:36:58;;;;;;;15.88;7.43;;;2.10;99.90;;;;;;4985988;28;20139;-86
2021/03/20 02:39:57;;;;;;;16.02;7.03;;;2.10;99.90;;;;;;4973220;28;20746;-84
2021/03/20 02:42:53;;;;;;;14.73;7.43;;;2.20;99.90;;;;;;4959019;28;20050;-85
2021/03/20 02:45:20;;;;;;;18.42;8.45;;;;;;;;;;4967792;28;20122;-84
2021/03/20 02:47:55;;;;;;;19.48;8.55;;;;;;;;;;4975997;28;20058;-84
2021/03/20 02:50:34;;;;;;;16.98;8.88;;;2.40;99.90;;;;;;4977814;28;20047;-84
2021/03/20 02:53:12;;;;;;;15.90;7.55;;;;;;;;;;4976751;28;20054;-84
2021/03/20 02:55:46;;;;;;;19.90;8.00;;;2.50;99.90;;;;;;4996391;28;20062;-85
2021/03/20 02:58:22;;;;;;;14.93;6.85;;;2.60;99.90;;;;;;4973242;28;20050;-84
2021/03/20 03:00:50;;;;;;;15.75;8.13;;;;;;;;;;4982296;28;20050;-83
2021/03/20 03:03:21;;;;;;;18.17;8.45;;;2.70;99.90;;;;;;4973785;28;20054;-83
2021/03/20 03:06:15;;;;;;;;;;;2.80;99.90;;;;;;4984638;28;20413;-82
2021/03/20 03:08:48;;;;;;;17.70;6.00;;;2.90;99.90;;;;;;4988320;28;19988;-85
2021/03/20 03:11:25;;;;;;;13.43;7.47;;;2.80;99.90;;;;;;4971681;28;20057;-84
2021/03/20 03:14:01;;;;;;;19.10;7.05;;;2.90;99.90;;;;;;4974121;28;20059;-84
2021/03/20 03:16:37;;;;;;;22.88;8.48;;;3.10;99.90;;;;;;4972973;28;20085;-84
2021/03/20 03:19:13;;;;;;;13.02;7.25;;;3.20;99.90;;;;;;4965687;28;20065;-84
2021/03/20 03:21:45;;;;;;;17.65;7.32;;;3.10;99.90;;;;;;4995928;28;20552;-85
2021/03/20 03:24:17;;;;;;;23.10;8.30;;;3.20;99.90;;;;;;4635773;28;10000012;-84
2021/03/20 03:26:50;;;;;;;17.65;8.20;;;3.30;99.90;;;;;;4977878;28;20046;-84
2021/03/20 03:29:24;;;;;;;13.20;6.40;;;3.30;99.90;;;;;;4975927;28;20581;-85
2021/03/20 03:32:33;;;;;;;23.13;7.30;;;3.40;99.90;;;;;;4977870;28;20055;-84
2021/03/20 03:35:29;;;;;;;14.45;6.85;;;3.40;99.90;;;;;;4904399;29;20075;-84
2021/03/20 03:38:09;;;;;;;15.88;7.00;;;;;;;;;;4989667;28;20074;-84
2021/03/20 03:40:49;;;;;;;17.00;8.15;;;3.50;99.90;;;;;;4987638;28;20088;-84
2021/03/20 03:43:18;;;;;;;22.47;10.03;;;3.60;99.90;;;;;;4982243;28;20050;-84
2021/03/20 03:45:48;;;;;;;17.63;7.45;;;3.60;99.90;;;;;;4977982;28;20053;-84
2021/03/20 03:48:18;;;;;;;15.77;6.45;;;3.70;99.90;;;;;;4962256;28;20050;-85
2021/03/20 03:50:47;;;;;;;12.83;6.70;;;3.70;99.90;;;;;;4978631;28;20058;-86
2021/03/20 03:53:22;;;;;;;19.48;7.25;;;3.80;99.90;;;;;;4960511;28;20340;-84
2021/03/20 03:55:55;;;;;;;14.40;6.90;;;3.90;99.90;;;;;;4970835;28;20413;-84
2021/03/20 03:58:58;;;;;;;13.18;6.85;;;3.90;99.90;;;;;;4989228;28;20057;-84
2021/03/20 04:01:48;;;;;;;18.58;7.80;;;3.90;99.90;;;;;;4959380;28;20409;-85
2021/03/20 04:05:02;;;;;;;17.73;7.93;;;4.00;99.90;;;;;;4976282;28;20066;-84
2021/03/20 04:07:29;;;;;;;13.82;7.15;;;;;;;;;;4962062;28;20061;-85
2021/03/20 04:10:21;;;;;;;12.27;6.38;;;4.00;99.90;;;;;;4986667;28;20069;-85
2021/03/20 04:13:01;;;;;;;;;;;4.10;99.90;;;;;;4967828;28;20054;-82
2021/03/20 04:15:50;;;;;;;18.27;7.90;;;4.10;99.90;;;;;;4972846;28;19925;-84
2021/03/20 04:18:24;;;;;;;12.68;6.50;;;;;;;;;;5001694;28;20299;-85
2021/03/20 04:20:55;;;;;;;12.05;6.20;;;;;;;;;;4985131;28;20054;-84
2021/03/20 04:23:34;;;;;;;19.48;8.05;;;4.30;99.90;;;;;;4968380;28;20047;-84
2021/03/20 04:26:31;;;;;;;16.70;6.95;;;4.40;99.90;;;;;;4950688;28;20057;-83
2021/03/20 04:28:59;;;;;;;8.27;4.82;;;;;;;;;;4979230;28;20057;-84
2021/03/20 04:31:26;;;;;;;8.85;5.30;;;;;;;;;;4968851;28;20047;-83
2021/03/20 04:34:10;;;;;;;8.25;4.65;;;4.60;99.90;;;;;;4975572;28;20051;-83
2021/03/20 04:36:45;;;;;;;6.75;4.93;;;4.70;99.90;;;;;;4978882;28;20069;-85
2021/03/20 04:39:16;;;;;;;7.78;5.40;;;4.60;99.90;;;;;;4966661;28;20042;-83
2021/03/20 04:41:48;;;;;;;8.88;6.57;;;;;;;;;;4985756;28;20070;-84
2021/03/20 04:44:17;;;;;;;7.97;5.32;;;;;;;;;;4993803;28;20068;-85
2021/03/20 04:46:53;;;;;;;7.38;3.85;;;;;;;;;;4983691;28;20065;-84
2021/03/20 04:49:40;;;;;;;3.70;3.28;;;4.90;99.90;;;;;;4969271;28;20047;-84
2021/03/20 04:52:26;;;;;;;4.40;2.92;;;5.00;99.90;;;;;;4962552;28;20409;-84
2021/03/20 04:54:56;;;;;;;5.00;3.90;;;5.00;99.90;;;;;;4950064;28;20042;-85
2021/03/20 04:57:25;;;;;;;4.50;3.60;;;;;;;;;;4962860;28;20053;-84
2021/03/20 04:59:53;;;;;;;4.03;3.28;;;;;;;;;;4979492;28;20517;-85
2021/03/20 05:02:49;;;;;;;6.45;4.18;;;5.10;99.90;;;;;;4998943;28;20050;-84
2021/03/20 05:05:18;;;;;;;3.10;2.78;;;5.30;99.90;;;;;;4989447;28;20051;-85
2021/03/20 05:07:46;;;;;;;4.40;3.40;;;;;;;;;;5013252;28;20072;-85
2021/03/20 05:10:32;;;;;;;3.47;2.85;;;5.10;99.90;;;;;;4997011;28;20043;-85
2021/03/20 05:13:01;;;;;;;7.68;3.80;;;5.20;99.90;;;;;;4981581;28;20061;-85
2021/03/20 05:15:32;;;;;;;5.25;3.70;;;5.20;99.90;;;;;;5010674;28;20042;-85
2021/03/20 05:18:00;;;;;;;3.85;3.45;;;;;;;;;;4967843;28;20054;-85
2021/03/20 05:20:28;;;;;;;5.43;3.70;;;;;;;;;;4963178;28;20051;-84
2021/03/20 05:22:56;;;;;;;4.40;3.28;;;;;;;;;;4984719;28;20061;-85
2021/03/20 05:25:25;;;;;;;8.52;3.83;;;5.50;99.90;;;;;;4983343;28;20058;-84
2021/03/20 05:27:53;;;;;;;6.95;4.03;;;5.30;99.90;;;;;;4948082;28;20042;-84
2021/03/20 05:30:21;;;;;;;5.40;3.88;;;;;;;;;;4980036;28;20042;-84
2021/03/20 05:32:48;;;;;;;5.68;3.55;;;;;;;;;;4981656;28;20058;-84
2021/03/20 05:35:22;;;;;;;5.95;4.18;;;5.30;99.90;;;;;;4972611;28;20138;-84
2021/03/20 05:37:50;;;;;;;6.93;4.90;;;;;;;;;;4967959;28;20062;-84
2021/03/20 05:40:28;;;;;;;7.55;3.65;;;5.30;99.90;;;;;;4961415;28;20054;-84
2021/03/20 05:43:35;;;;;;;4.07;3.17;;;5.40;99.90;;;;;;4978050;28;20042;-84
2021/03/20 05:46:08;;;;;;;4.20;3.47;;;5.50;99.90;;;;;;4946474;28;20050;-83
2021/03/20 05:48:42;;;;;;;7.03;5.00;;;5.80;99.90;;;;;;4972219;28;20051;-83
2021/03/20 05:51:29;;;;;;;5.78;3.75;;;5.30;99.90;;;;;;4973334;28;20050;-85
2021/03/20 05:53:56;;;;;;;10.02;4.97;;;;;;;;;;4959504;28;20238;-84
2021/03/20 05:56:42;;;;;;;8.80;4.47;;;5.40;99.90;;;;;;4981737;28;20493;-84
2021/03/20 05:59:21;;;;;;;6.88;4.15;;;5.30;99.90;;;;;;4956398;28;20046;-84
2021/03/20 06:01:49;;;;;;;5.50;3.38;;;;;;;;;;4996430;28;20062;-84
2021/03/20 06:04:30;;;;;;;10.10;4.03;;;5.10;99.90;;;;;;4979192;28;20054;-84
2021/03/20 06:07:35;;;;;;;6.57;4.07;;;5.40;99.90;;;;;;4979780;28;20498;-84
2021/03/20 06:10:02;;;;;;;5.13;3.70;;;;;;;;;;4965352;28;20070;-84
2021/03/20 06:13:14;;;;;;;6.18;3.85;;;5.40;99.90;;;;;;4978852;28;20046;-84
2021/03/20 06:15:48;;;;;;;5.45;4.15;;;;;;;;;;4964714;28;20062;-84
2021/03/20 06:18:38;;;;;;;9.82;4.15;;;5.40;99.90;;;;;;4997103;28;20058;-83
2021/03/20 06:21:08;;;;;;;5.18;3.92;;;5.50;99.90;;;;;;4969567;28;20670;-84
2021/03/20 06:23:54;;;;;;;8.13;4.03;;;;;;;;;;4966626;28;20054;-84
2021/03/20 06:26:35;;;;;;;5.28;3.65;;;5.40;99.90;;;;;;4995509;28;20142;-84
2021/03/20 06:29:25;;;;;;;5.18;3.42;;;5.40;99.90;;;;;;5007149;28;20058;-84
2021/03/20 06:32:06;;;;;;;5.47;3.50;;;5.60;99.90;;;;;;4961418;28;20038;-84
2021/03/20 06:34:45;;;;;;;5.10;3.90;;;5.40;99.90;;;;;;5002681;28;20057;-84
2021/03/20 06:37:22;;;;;;;7.03;4.05;;;5.40;99.90;;;;;;4987315;28;20065;-84
2021/03/20 06:39:50;;;;;;;5.93;4.10;;;;;;;;;;4988442;28;20054;-85
2021/03/20 06:42:24;;;;;;;7.10;3.70;;;5.50;99.90;;;;;;4972812;28;20060;-84
2021/03/20 06:45:03;;;;;;;5.22;3.88;;;5.50;99.90;;;;;;4960926;28;20050;-84
2021/03/20 06:47:33;;;;;;;7.35;3.88;;;5.40;99.90;;;;;;4972976;28;20051;-85
2021/03/20 06:50:01;;;;;;;14.10;5.20;;;;;;;;;;4973390;28;20374;-84
2021/03/20 06:52:31;;;;;;;6.53;3.85;;;5.40;99.90;;;;;;4986813;28;20315;-84
2021/03/20 06:55:03;;;;;;;9.30;5.13;;;5.40;99.90;;;;;;4971713;28;20514;-84
2021/03/20 06:57:30;;;;;;;5.95;3.75;;;;;;;;;;4968745;28;20062;-83
2021/03/20 07:00:22;;;;;;;7.55;4.10;;;5.50;99.90;;;;;;4969784;28;20046;-85
2021/03/20 07:03:44;;;;;;;9.48;4.85;;;5.40;99.90;;;;;;4964452;28;20059;-85
2021/03/20 07:06:34;;;;;;;7.20;4.20;;;5.60;99.90;;;;;;4910904;29;20482;-85
2021/03/20 07:09:06;;;;;;;5.30;3.95;;;5.50;99.90;;;;;;4976029;28;20061;-84
2021/03/20 07:11:33;;;;;;;7.25;4.18;;;;;;;;;;4979228;28;20042;-84
2021/03/20 07:14:32;;;;;;;5.43;4.32;;;5.80;99.90;;;;;;4966484;28;20058;-85
2021/03/20 07:17:02;;;;;;;7.63;5.40;;;5.80;99.90;;;;;;4969604;28;20050;-84
2021/03/20 07:19:31;;;;;;;5.90;4.95;;;;;;;;;;4987510;28;20050;-84
2021/03/20 07:21:58;;;;;;;8.63;4.40;;;;;;;;;;4963500;28;20061;-84
2021/03/20 07:24:38;;;;;;;8.90;4.32;;;6.00;99.90;;;;;;4986846;28;20051;-84
2021/03/20 07:27:28;;;;;;;8.90;4.25;;;6.10;99.90;;;;;;4961271;28;20050;-84
2021/03/20 07:30:20;;;;;;;5.97;4.28;;;6.20;99.90;;;;;;4969056;28;20065;-85
2021/03/20 07:32:48;;;;;;;5.88;3.47;;;;;;;;;;4937863;28;20050;-85
2021/03/20 07:35:19;;;;;;;8.23;4.13;;;6.40;99.90;;;;;;4949572;28;20047;-83
2021/03/20 07:37:47;;;;;;;5.90;4.18;;;;;;;;;;4972905;28;20050;-84
2021/03/20 07:40:24;;;;;;;7.32;4.55;;;6.20;99.90;;;;;;4972211;28;20054;-83
2021/03/20 07:43:09;;;;;;;7.18;5.30;;;6.50;99.90;;;;;;4986718;28;20070;-84
2021/03/20 07:45:38;;;;;;;8.52;4.45;;;;;;;;;;4988259;28;20046;-85
2021/03/20 07:48:34;;;;;;;6.00;3.75;;;6.70;99.90;;;;;;4967901;28;20058;-84
2021/03/20 07:51:09;;;;;;;11.38;4.68;;;6.70;99.90;;;;;;4946053;28;20063;-84
2021/03/20 07:53:51;;;;;;;8.57;3.88;;;6.90;99.90;;;;;;4988092;28;20061;-84
2021/03/20 07:56:19;;;;;;;5.32;3.47;;;;;;;;;;4970778;28;20441;-84
2021/03/20 07:59:00;;;;;;;5.13;3.45;;;6.90;99.90;;;;;;4985763;28;20061;-84
2021/03/20 08:01:31;;;;;;;10.88;4.32;;;7.00;99.90;;;;;;4990992;28;20066;-82
2021/03/20 08:04:09;;;;;;;9.43;4.97;;;7.10;99.90;;;;;;4976502;28;20578;-84
2021/03/20 08:06:39;;;;;;;7.38;4.25;;;;;;;;;;4971679;28;20061;-84
2021/03/20 08:09:21;;;;;;;10.73;4.47;;;7.30;99.90;;;;;;5009310;28;20072;-84
2021/03/20 08:11:49;;;;;;;9.15;4.90;;;;;;;;;;5002288;28;20058;-83
2021/03/20 08:14:29;;;;;;;7.07;4.43;;;7.30;99.90;;;;;;4993082;28;20059;-85
2021/03/20 08:16:58;;;;;;;9.90;3.90;;;;;;;;;;4954207;28;20061;-84
2021/03/20 08:19:26;;;;;;;10.05;4.20;;;;;;;;;;4956612;28;20051;-84
2021/03/20 08:22:31;;;;;;;12.95;4.50;;;7.40;99.90;;;;;;4940490;28;20054;-85
2021/03/20 08:25:17;;;;;;;7.63;4.03;;;7.40;99.90;;;;;;4957517;28;20632;-83
2021/03/20 08:27:46;;;;;;;9.80;4.30;;;;;;;;;;4975144;28;20038;-84
2021/03/20 08:30:49;;;;;;;6.15;3.83;;;7.50;99.90;;;;;;4971983;28;20050;-83
2021/03/20 08:33:30;;;;;;;9.13;5.13;;;7.60;99.90;;;;;;4954187;28;20050;-84
2021/03/20 08:36:34;;;;;;;6.93;3.85;;;7.50;99.90;;;;;;4969448;28;20054;-85
2021/03/20 08:39:25;;;;;;;7.65;3.10;;;7.70;99.90;;;;;;4970736;28;20054;-84
2021/03/20 08:42:03;;;;;;;9.40;4.72;;;8.10;99.90;;;;;;4976207;28;20058;-84
2021/03/20 08:45:08;;;;;;;7.40;4.05;;;7.80;99.90;;;;;;4972381;28;20054;-83
2021/03/20 08:48:01;;;;;;;9.38;4.07;;;7.60;99.90;;;;;;4940502;28;20121;-84
2021/03/20 08:50:46;;;;;;;10.80;5.30;;;8.00;99.90;;;;;;4969239;28;20055;-83
2021/03/20 08:53:31;;;;;;;9.68;5.32;;;7.90;99.90;;;;;;4983808;28;20066;-84
2021/03/20 08:56:29;;;;;;;12.52;5.22;;;8.00;99.90;;;;;;4976391;28;20498;-83
2021/03/20 08:59:12;;;;;;;12.48;5.20;;;7.90;99.90;;;;;;4965828;28;20549;-83
2021/03/20 09:02:05;;;;;;;11.30;5.13;;;8.20;99.90;;;;;;4975564;28;20050;-83
2021/03/20 09:04:35;;;;;;;18.63;7.50;;;8.20;99.90;;;;;;4960748;28;20050;-83
2021/03/20 09:07:11;;;;;;;14.82;6.82;;;8.30;99.90;;;;;;4971592;28;20082;-83
2021/03/20 09:09:52;;;;;;;18.48;6.70;;;8.30;99.90;;;;;;4947341;28;20062;-83
2021/03/20 09:12:36;;;;;;;14.25;6.72;;;8.30;99.90;;;;;;4962083;28;20054;-84
2021/03/20 09:15:07;;;;;;;13.15;6.82;;;8.50;99.90;;;;;;4981698;28;20054;-84
2021/03/20 09:17:41;;;;;;;12.55;5.85;;;8.70;99.90;;;;;;4972182;28;20058;-82
2021/03/20 09:20:28;;;;;;;18.23;6.60;;;8.80;99.90;;;;;;4973327;28;20065;-83
2021/03/20 09:22:57;;;;;;;13.48;5.65;;;8.90;99.90;;;;;;4973348;28;20073;-83
2021/03/20 09:25:42;;;;;;;15.55;7.03;;;6.50;99.90;;;;;;4959348;28;20046;-84
2021/03/20 09:28:16;;;;;;;16.35;6.55;;;9.10;99.90;;;;;;4966566;28;20762;-82
2021/03/20 09:30:48;;;;;;;15.05;7.35;;;;;;;;;;4969936;28;20047;-84
2021/03/20 09:33:28;;;;;;;15.85;7.28;;;9.00;99.90;;;;;;4970073;28;20046;-84
2021/03/20 09:36:00;;;;;;;14.50;6.90;;;9.00;99.90;;;;;;4985591;28;20774;-84
2021/03/20 09:38:49;;;;;;;18.20;7.50;;;;;;;;;;4970043;28;20374;-84
2021/03/20 09:41:20;;;;;;;17.95;8.20;;;;;;;;;;4970241;28;20050;-83
2021/03/20 09:44:14;;;;;;;15.18;7.55;;;9.10;99.90;;;;;;4964361;28;20054;-84
2021/03/20 09:46:43;;;;;;;;;;;9.10;99.90;;;;;;4972053;28;20051;-85
2021/03/20 09:49:10;;;;;;;18.67;8.05;;;;;;;;;;4993474;28;20006;-83
2021/03/20 09:51:50;;;;;;;18.95;9.23;;;9.10;99.90;;;;;;4630781;28;10000460;-85
2021/03/20 09:54:24;;;;;;;21.45;9.38;;;;;;;;;;4976030;28;20045;-83
2021/03/20 09:59:43;;;;;;;20.17;7.78;;;9.40;99.90;;;;;;4998538;28;20063;-84
2021/03/20 10:02:11;;;;;;;19.77;8.27;;;;;;;;;;4980697;28;20061;-82
2021/03/20 10:05:04;;;;;;;19.45;8.07;;;9.30;99.90;;;;;;4978007;28;20169;-84
2021/03/20 10:07:34;;;;;;;16.75;8.35;;;9.30;99.90;;;;;;4993474;28;20046;-83
2021/03/20 10:10:13;;;;;;;25.77;9.10;;;;;;;;;;4965274;28;20053;-83
2021/03/20 10:12:43;;;;;;;20.33;8.93;;;;;;;;;;4974770;28;20054;-83
2021/03/20 10:15:18;;;;;;;;;;;9.60;99.90;;;;;;4966565;28;20691;-83
2021/03/20 10:18:04;;;;;;;19.95;8.27;;;;;;;;;;4995684;28;19936;-83
2021/03/20 10:20:55;;;;;;;17.50;7.75;;;9.70;99.90;;;;;;4965083;28;20061;-83
2021/03/20 10:23:41;;;;;;;22.52;10.18;;;9.70;99.90;;;;;;4991786;28;20069;-83
2021/03/20 10:26:27;;;;;;;19.17;8.05;;;9.80;99.90;;;;;;4984332;28;20046;-84
2021/03/20 10:29:04;;;;;;;22.70;9.93;;;9.90;99.90;;;;;;5004025;28;20363;-84
2021/03/20 10:31:40;;;;;;;17.15;7.97;;;9.90;99.90;;;;;;4970227;28;20061;-83
2021/03/20 10:34:14;;;;;;;19.23;7.53;;;9.90;99.90;;;;;;4962999;28;20054;-82
2021/03/20 10:36:46;;;;;;;15.65;6.97;;;10.00;99.90;;;;;;5000003;28;20047;-84
2021/03/20 10:39:27;;;;;;;21.20;8.27;;;10.00;99.90;;;;;;4949428;28;20376;-84
2021/03/20 10:42:14;;;;;;;16.98;8.60;;;10.00;99.90;;;;;;4976775;28;20375;-83
2021/03/20 10:44:45;;;;;;;21.90;9.43;;;10.10;99.90;;;;;;4991014;28;20437;-83
2021/03/20 10:47:25;;;;;;;21.77;9.95;;;9.90;99.90;;;;;;4989626;28;20077;-84
2021/03/20 10:50:22;;;;;;;20.65;8.75;;;10.00;99.90;;;;;;4955922;28;20505;-83
2021/03/20 10:52:51;;;;;;;21.08;9.18;;;10.10;99.90;;;;;;4967413;28;20043;-84
2021/03/20 10:55:18;;;;;;;17.77;8.23;;;;;;;;;;4980761;28;20058;-83
2021/03/20 10:57:47;;;;;;;14.73;8.25;;;;;;;;;;4942942;28;20059;-84
2021/03/20 11:00:23;;;;;;;19.25;9.35;;;10.00;99.90;;;;;;4965746;28;20054;-84
2021/03/20 11:02:51;;;;;;;14.82;7.68;;;;;;;;;;4983516;28;20062;-85
2021/03/20 11:05:22;;;;;;;17.77;8.75;;;9.80;99.90;;;;;;4967351;28;20057;-83
2021/03/20 11:07:49;;;;;;;18.23;8.15;;;;;;;;;;4970122;28;20160;-84
2021/03/20 11:10:25;;;;;;;15.68;7.53;;;9.90;99.90;;;;;;4956373;28;20046;-84
2021/03/20 11:12:54;;;;;;;21.13;10.55;;;9.90;99.90;;;;;;4993121;28;20058;-83
2021/03/20 11:15:29;;;;;;;19.73;7.68;;;10.00;99.90;;;;;;4965585;28;20054;-83
2021/03/20 11:18:00;;;;;;;15.77;7.22;;;10.00;99.90;;;;;;4939757;28;20050;-83
2021/03/20 11:20:35;;;;;;;14.60;7.00;;;10.00;99.90;;;;;;4984394;28;20054;-85
2021/03/20 11:23:04;;;;;;;14.73;6.85;;;10.40;99.90;;;;;;4969410;28;20284;-83
2021/03/20 11:25:40;;;;;;;12.63;5.88;;;10.30;99.90;;;;;;4966656;28;20116;-84
2021/03/20 11:28:14;;;;;;;14.20;6.32;;;10.30;99.90;;;;;;4956884;28;20047;-83
2021/03/20 11:30:45;;;;;;;17.30;7.85;;;10.20;99.90;;;;;;4983744;28;20061;-83
2021/03/20 11:33:20;;;;;;;14.25;7.20;;;10.10;99.90;;;;;;4979327;28;20516;-84
2021/03/20 11:35:56;;;;;;;18.67;8.40;;;10.20;99.90;;;;;;4997367;28;20065;-85
2021/03/20 11:38:24;;;;;;;14.90;7.53;;;10.20;99.90;;;;;;4989185;28;20054;-83
2021/03/20 11:40:54;;;;;;;18.77;9.50;;;;;;;;;;4985777;28;20065;-84
2021/03/20 11:43:24;;;;;;;17.02;7.85;;;10.20;99.90;;;;;;4968172;28;20057;-85
2021/03/20 11:45:53;;;;;;;21.83;10.45;;;10.50;99.90;;;;;;4962876;28;21042;-84
2021/03/20 11:48:38;;;;;;;19.25;8.15;;;10.30;99.90;;;;;;4978673;28;20066;-84
2021/03/20 11:51:14;;;;;;;19.98;8.43;;;10.20;99.90;;;;;;4971003;28;20526;-86
2021/03/20 11:53:46;;;;;;;18.42;8.85;;;10.20;99.90;;;;;;4968865;28;20069;-85
2021/03/20 11:56:21;;;;;;;18.35;8.82;;;10.20;99.90;;;;;;4982374;28;20054;-86
2021/03/20 11:58:55;;;;;;;24.52;8.60;;;10.20;99.90;;;;;;4962187;28;20471;-83
2021/03/20 12:01:31;;;;;;;16.85;9.05;;;10.20;99.90;;;;;;4951612;28;20054;-86
2021/03/20 12:04:21;;;;;;;16.65;9.13;;;10.20;99.90;;;;;;4977043;28;20050;-84
2021/03/20 12:06:50;;;;;;;17.58;8.50;;;10.30;99.90;;;;;;4983239;28;20092;-85
2021/03/20 12:09:24;;;;;;;18.33;9.05;;;;;;;;;;4950671;28;20046;-85
2021/03/20 12:11:54;;;;;;;14.80;8.20;;;10.30;99.90;;;;;;4958620;28;20062;-85
2021/03/20 12:14:42;;;;;;;21.40;8.95;;;10.40;99.90;;;;;;4962657;28;20061;-85
2021/03/20 12:17:09;;;;;;;16.67;9.10;;;9.90;99.90;;;;;;4963169;28;20061;-86
2021/03/20 12:19:59;;;;;;;16.95;7.45;;;10.40;99.90;;;;;;4948740;28;20057;-87
2021/03/20 12:22:51;;;;;;;15.07;7.53;;;10.20;99.90;;;;;;4981720;28;20409;-85
2021/03/20 12:25:32;;;;;;;14.20;6.40;;;10.40;99.90;;;;;;4948611;28;20069;-84
2021/03/20 12:28:33;;;;;;;17.02;7.90;;;10.40;99.90;;;;;;4962229;28;20581;-85
2021/03/20 12:31:08;;;;;;;14.75;6.78;;;10.30;99.90;;;;;;4978143;28;21279;-84
2021/03/20 12:33:56;;;;;;;14.45;6.25;;;10.50;99.90;;;;;;4969796;28;20169;-84
2021/03/20 12:36:24;;;;;;;15.65;5.90;;;;;;;;;;4960285;28;20060;-85
2021/03/20 12:38:52;;;;;;;17.90;6.35;;;10.40;99.90;;;;;;4971396;28;20504;-85
2021/03/20 12:41:24;;;;;;;16.50;7.40;;;10.40;99.90;;;;;;4975457;28;20046;-83
2021/03/20 12:44:14;;;;;;;17.13;8.57;;;10.50;99.90;;;;;;4998718;28;20093;-84
2021/03/20 12:46:59;;;;;;;16.65;8.40;;;10.60;99.90;;;;;;4963862;28;20505;-85
2021/03/20 12:49:34;;;;;;;19.38;7.82;;;10.50;99.90;;;;;;4969101;28;20406;-84
2021/03/20 12:52:11;;;;;;;15.20;7.57;;;10.60;99.90;;;;;;4971155;28;20531;-84
2021/03/20 12:54:46;;;;;;;17.23;8.52;;;10.40;99.90;;;;;;4953129;28;20062;-82
2021/03/20 12:57:20;;;;;;;15.63;6.82;;;10.50;99.90;;;;;;4964132;28;20578;-82
2021/03/20 12:59:48;;;;;;;18.17;7.60;;;;;;;;;;4968604;28;20490;-85
2021/03/20 13:02:17;;;;;;;19.63;8.80;;;10.60;99.90;;;;;;4966142;28;20050;-85
2021/03/20 13:04:49;;;;;;;19.05;9.25;;;10.60;99.90;;;;;;4969547;28;20493;-85
2021/03/20 13:07:18;;;;;;;23.95;9.00;;;10.60;99.90;;;;;;4969046;28;20050;-85
2021/03/20 13:09:47;;;;;;;19.27;9.25;;;10.60;99.90;;;;;;4974372;28;20058;-85
2021/03/20 13:12:16;;;;;;;21.67;9.05;;;;;;;;;;4972880;28;20057;-86
2021/03/20 13:14:43;;;;;;;20.63;8.30;;;;;;;;;;4995375;28;20054;-84
2021/03/20 13:17:12;;;;;;;17.42;7.60;;;10.60;99.90;;;;;;4967446;28;20097;-86
2021/03/20 13:19:45;;;;;;;19.20;9.93;;;;;;;;;;4957440;28;20082;-85
2021/03/20 13:22:13;;;;;;;21.20;8.85;;;;;;;;;;4950528;28;20046;-84
2021/03/20 13:24:41;;;;;;;19.23;7.60;;;;;;;;;;4963788;28;20073;-83
2021/03/20 13:27:09;;;;;;;18.42;8.05;;;;;;;;;;4964119;28;20055;-86
2021/03/20 13:29:36;;;;;;;19.55;8.30;;;;;;;;;;4939466;28;20054;-86
2021/03/20 13:32:04;;;;;;;24.10;9.18;;;10.60;99.90;;;;;;4966126;28;20066;-86
2021/03/20 13:34:32;;;;;;;16.58;8.02;;;;;;;;;;4963378;28;20065;-84
2021/03/20 13:37:00;;;;;;;22.90;9.23;;;;;;;;;;4967404;28;20046;-86
2021/03/20 13:39:27;;;;;;;18.35;7.43;;;;;;;;;;4970074;28;20073;-84
2021/03/20 13:41:56;;;;;;;25.77;8.00;;;;;;;;;;4959641;28;20054;-83
2021/03/20 13:44:26;;;;;;;16.65;6.78;;;;;;;;;;4987966;28;20092;-86
2021/03/20 13:46:54;;;;;;;16.38;7.90;;;;;;;;;;4964228;28;20094;-82
2021/03/20 13:49:22;;;;;;;20.23;7.22;;;10.60;99.90;;;;;;4975008;28;20138;-85
2021/03/20 13:51:50;;;;;;;20.73;7.95;;;;;;;;;;4999755;28;20053;-88
2021/03/20 13:54:18;;;;;;;15.18;7.72;;;;;;;;;;4956423;28;20069;-89
2021/03/20 13:56:45;;;;;;;20.52;10.40;;;;;;;;;;4955873;28;20046;-85
2021/03/20 13:59:15;;;;;;;26.88;11.50;;;10.70;99.90;;;;;;4981546;28;20061;-86
2021/03/20 14:01:42;;;;;;;19.45;9.25;;;;;;;;;;4951733;28;20054;-88
2021/03/20 14:04:11;;;;;;;22.77;10.93;;;;;;;;;;4958567;28;20065;-87
2021/03/20 14:06:39;;;;;;;21.13;10.75;;;;;;;;;;4948446;28;20042;-86
2021/03/20 14:09:06;;;;;;;19.67;9.95;;;;;;;;;;4946156;28;20051;-86
2021/03/20 14:11:34;;;;;;;19.90;8.60;;;;;;;;;;4967161;28;20042;-86
2021/03/20 14:14:04;;;;;;;21.33;8.55;;;11.40;99.90;;;;;;4943967;28;20055;-89
2021/03/20 14:16:32;;;;;;;20.05;8.63;;;;;;;;;;4939603;28;20054;-86